createdAt,value
2018-04-11T00:00:26.623Z,24.97
2018-04-11T00:02:54.881Z,16.10
2018-04-11T00:05:24.079Z,17.17
2018-04-11T00:07:52.340Z,23.67
2018-04-11T00:10:20.616Z,17.07
2018-04-11T00:12:48.885Z,23.80
2018-04-11T00:15:17.159Z,19.93
2018-04-11T00:17:45.424Z,20.17
2018-04-11T00:20:14.465Z,17.83
2018-04-11T00:22:42.730Z,19.20
2018-04-11T00:25:10.998Z,19.73
2018-04-11T00:27:39.361Z,27.33
2018-04-11T00:30:07.636Z,21.23
2018-04-11T00:32:35.922Z,20.93
2018-04-11T00:35:04.182Z,22.67
2018-04-11T00:37:33.247Z,18.33
2018-04-11T00:40:01.516Z,20.60
2018-04-11T00:42:29.779Z,27.30
2018-04-11T00:44:58.164Z,20.17
2018-04-11T00:47:26.445Z,22.97
2018-04-11T00:49:54.723Z,24.10
2018-04-11T00:52:23.005Z,21.47
2018-04-11T00:54:51.277Z,22.20
2018-04-11T00:57:19.564Z,21.70
2018-04-11T00:59:47.835Z,22.47
2018-04-11T01:02:16.310Z,24.13
2018-04-11T01:04:46.308Z,26.73
2018-04-11T01:07:14.611Z,22.60
2018-04-11T01:09:42.889Z,25.17
2018-04-11T01:12:11.156Z,23.70
2018-04-11T01:14:40.216Z,25.87
2018-04-11T01:17:08.530Z,19.80
2018-04-11T01:19:36.805Z,22.30
2018-04-11T01:22:05.083Z,19.90
2018-04-11T01:24:33.359Z,26.03
2018-04-11T01:27:01.637Z,21.10
2018-04-11T01:29:30.687Z,18.60
2018-04-11T01:31:58.959Z,28.53
2018-04-11T01:34:27.216Z,22.47
2018-04-11T01:36:55.505Z,18.87
2018-04-11T01:39:23.767Z,17.77
2018-04-11T01:41:52.041Z,20.07
2018-04-11T01:44:21.120Z,18.30
2018-04-11T01:46:50.131Z,23.97
2018-04-11T01:49:18.414Z,19.03
2018-04-11T01:51:46.707Z,23.70
2018-04-11T01:54:14.967Z,18.10
2018-04-11T01:56:43.252Z,26.80
2018-04-11T01:59:11.541Z,21.20
2018-04-11T02:01:39.796Z,16.97
2018-04-11T02:04:08.073Z,22.07
2018-04-11T02:06:36.337Z,18.50
2018-04-11T02:09:04.612Z,12.93
2018-04-11T02:11:32.891Z,20.07
2018-04-11T02:14:01.164Z,29.23
2018-04-11T02:16:30.237Z,24.63
2018-04-11T02:18:58.512Z,26.17
2018-04-11T02:21:27.553Z,25.00
2018-04-11T02:23:55.842Z,15.40
2018-04-11T02:26:24.113Z,22.53
2018-04-11T02:28:52.378Z,16.73
2018-04-11T02:31:20.648Z,19.77
2018-04-11T02:33:48.921Z,23.97
2018-04-11T02:36:17.193Z,20.70
2018-04-11T02:38:45.461Z,22.23
2018-04-11T02:41:14.591Z,21.80
2018-04-11T02:43:42.861Z,23.33
2018-04-11T02:46:11.130Z,25.43
2018-04-11T02:48:39.410Z,19.43
2018-04-11T02:51:07.680Z,18.87
2018-04-11T02:53:35.945Z,24.10
2018-04-11T02:56:04.214Z,19.47
2018-04-11T02:58:32.501Z,22.93
2018-04-11T03:01:00.777Z,23.10
2018-04-11T03:03:29.050Z,20.30
2018-04-11T03:05:57.325Z,21.30
2018-04-11T03:08:25.601Z,15.80
2018-04-11T03:10:53.888Z,7.60
2018-04-11T03:13:22.171Z,19.57
2018-04-11T03:15:50.466Z,25.17
2018-04-11T03:18:18.730Z,23.10
2018-04-11T03:20:47.014Z,22.57
2018-04-11T03:23:15.281Z,28.50
2018-04-11T03:25:43.557Z,24.30
2018-04-11T03:28:12.593Z,26.87
2018-04-11T03:30:40.857Z,23.40
2018-04-11T03:33:09.151Z,23.40
2018-04-11T03:35:37.445Z,25.87
2018-04-11T03:38:06.493Z,31.07
2018-04-11T03:40:34.762Z,47.13
2018-04-11T03:43:03.060Z,29.23
2018-04-11T03:45:31.345Z,25.17
2018-04-11T03:47:59.617Z,31.30
2018-04-11T03:50:27.908Z,31.93
2018-04-11T03:52:56.934Z,24.97
2018-04-11T03:55:25.333Z,30.37
2018-04-11T03:57:53.627Z,34.30
2018-04-11T04:00:21.937Z,29.07
2018-04-11T04:02:51.004Z,37.40
2018-04-11T04:05:19.289Z,32.97
2018-04-11T04:07:47.598Z,31.93
2018-04-11T04:10:16.625Z,31.57
2018-04-11T04:12:44.918Z,34.83
2018-04-11T04:15:25.007Z,21.83
2018-04-11T04:20:59.832Z,23.30
2018-04-11T04:23:28.317Z,26.50
2018-04-11T04:25:56.574Z,26.60
2018-04-11T04:28:24.849Z,31.17
2018-04-11T04:30:53.112Z,30.87
2018-04-11T04:33:21.401Z,32.60
2018-04-11T04:35:49.665Z,27.90
2018-04-11T04:38:17.924Z,26.43
2018-04-11T04:40:46.193Z,27.87
2018-04-11T04:43:14.465Z,10.40
2018-04-11T04:45:42.729Z,23.07
2018-04-11T04:48:11.750Z,28.07
2018-04-11T04:50:40.052Z,26.83
2018-04-11T04:53:08.325Z,25.30
2018-04-11T04:55:36.593Z,33.50
2018-04-11T04:58:04.892Z,33.23
2018-04-11T05:00:33.146Z,27.80
2018-04-11T05:03:01.434Z,29.10
2018-04-11T05:05:29.737Z,36.43
2018-04-11T05:07:58.006Z,38.03
2018-04-11T05:10:26.266Z,33.10
2018-04-11T05:12:55.355Z,36.63
2018-04-11T05:15:23.615Z,39.00
2018-04-11T05:17:51.909Z,38.80
2018-04-11T05:20:20.206Z,37.73
2018-04-11T05:22:48.566Z,42.30
2018-04-11T05:25:16.822Z,46.40
2018-04-11T05:27:45.089Z,34.73
2018-04-11T05:30:13.380Z,32.47
2018-04-11T05:32:41.687Z,38.33
2018-04-11T05:35:10.012Z,34.57
2018-04-11T05:37:38.290Z,35.60
2018-04-11T05:40:06.555Z,36.57
2018-04-11T05:42:34.861Z,37.53
2018-04-11T05:45:03.892Z,37.70
2018-04-11T05:47:32.246Z,39.80
2018-04-11T05:50:00.524Z,41.37
2018-04-11T05:52:28.884Z,44.10
2018-04-11T05:54:57.162Z,39.07
2018-04-11T05:57:25.444Z,42.43
2018-04-11T05:59:53.715Z,40.77
2018-04-11T06:02:22.119Z,48.23
2018-04-11T06:04:50.405Z,44.00
2018-04-11T06:07:18.674Z,45.60
2018-04-11T06:09:46.956Z,44.67
2018-04-11T06:12:15.225Z,50.50
2018-04-11T06:14:43.505Z,46.87
2018-04-11T06:17:11.912Z,53.30
2018-04-11T06:19:40.982Z,53.93
2018-04-11T06:22:09.247Z,50.90
2018-04-11T06:24:37.529Z,52.60
2018-04-11T06:27:05.881Z,60.97
2018-04-11T06:29:34.175Z,50.20
2018-04-11T06:32:02.454Z,54.63
2018-04-11T06:34:30.772Z,60.47
2018-04-11T06:36:59.713Z,58.80
2018-04-11T06:39:27.915Z,58.93
2018-04-11T06:41:56.998Z,58.97
2018-04-11T06:44:25.317Z,57.73
2018-04-11T06:46:53.642Z,50.23
2018-04-11T06:49:21.942Z,68.23
2018-04-11T06:51:50.253Z,72.37
2018-04-11T06:54:19.332Z,62.77
2018-04-11T06:56:47.588Z,61.77
2018-04-11T06:59:15.861Z,69.00
2018-04-11T07:01:45.122Z,57.60
2018-04-11T07:04:13.436Z,58.23
2018-04-11T07:06:41.707Z,49.80
2018-04-11T07:09:10.925Z,58.57
2018-04-11T07:11:39.211Z,57.13
2018-04-11T07:14:08.315Z,53.23
2018-04-11T07:16:36.625Z,44.77
2018-04-11T07:19:04.917Z,39.20
2018-04-11T07:21:33.206Z,45.23
2018-04-11T07:24:01.487Z,50.37
2018-04-11T07:26:29.793Z,57.90
2018-04-11T07:28:58.124Z,50.67
2018-04-11T07:31:26.530Z,53.50
2018-04-11T07:33:54.807Z,57.80
2018-04-11T07:36:23.069Z,51.63
2018-04-11T07:38:51.378Z,53.00
2018-04-11T07:41:20.432Z,50.60
2018-04-11T07:43:48.724Z,53.80
2018-04-11T07:46:17.529Z,46.40
2018-04-11T07:48:45.818Z,59.77
2018-04-11T07:51:14.967Z,44.40
2018-04-11T07:53:43.253Z,50.40
2018-04-11T07:56:11.521Z,47.00
2018-04-11T07:58:39.883Z,45.03
2018-04-11T08:01:08.158Z,38.37
2018-04-11T08:03:36.451Z,39.17
2018-04-11T08:06:05.508Z,42.73
2018-04-11T08:08:33.806Z,42.60
2018-04-11T08:11:02.115Z,35.03
2018-04-11T08:13:30.415Z,41.23
2018-04-11T08:15:59.481Z,45.17
2018-04-11T08:18:27.758Z,44.73
2018-04-11T08:20:56.105Z,37.20
2018-04-11T08:23:29.004Z,37.50
2018-04-11T08:25:57.587Z,30.90
2018-04-11T08:28:25.863Z,38.53
2018-04-11T08:30:54.244Z,43.53
2018-04-11T08:33:22.544Z,43.83
2018-04-11T08:35:51.598Z,48.30
2018-04-11T08:38:19.890Z,39.53
2018-04-11T08:40:48.147Z,37.30
2018-04-11T08:43:16.433Z,37.97
2018-04-11T08:45:44.730Z,34.20
2018-04-11T08:48:13.015Z,36.20
2018-04-11T08:50:41.284Z,36.83
2018-04-11T08:53:09.660Z,33.47
2018-04-11T08:55:37.951Z,28.23
2018-04-11T08:58:06.426Z,32.17
2018-04-11T09:00:34.699Z,28.67
2018-04-11T09:03:02.989Z,26.13
2018-04-11T09:05:32.064Z,33.30
2018-04-11T09:08:00.436Z,27.90
2018-04-11T09:10:28.725Z,31.20
2018-04-11T09:12:57.001Z,24.73
2018-04-11T09:15:25.276Z,26.00
2018-04-11T09:17:53.569Z,28.30
2018-04-11T09:20:21.863Z,18.90
2018-04-11T09:22:50.906Z,22.33
2018-04-11T09:25:19.191Z,20.63
2018-04-11T09:27:47.460Z,24.87
2018-04-11T09:30:15.733Z,30.70
2018-04-11T09:32:44.002Z,21.10
2018-04-11T09:35:12.294Z,37.60
2018-04-11T09:37:40.574Z,30.53
2018-04-11T09:40:08.844Z,48.90
2018-04-11T09:42:37.158Z,45.67
2018-04-11T09:45:05.473Z,53.03
2018-04-11T09:47:33.780Z,46.17
2018-04-11T09:50:02.122Z,43.33
2018-04-11T09:52:30.396Z,49.40
2018-04-11T09:54:58.718Z,39.37
2018-04-11T09:57:26.989Z,42.40
2018-04-11T09:59:55.389Z,43.70
2018-04-11T10:02:24.467Z,56.07
2018-04-11T10:04:52.749Z,41.30
2018-04-11T10:07:21.041Z,38.10
2018-04-11T10:09:49.393Z,38.00
2018-04-11T10:12:17.809Z,48.13
2018-04-11T10:14:47.000Z,44.53
2018-04-11T10:17:16.224Z,31.00
2018-04-11T10:19:44.545Z,31.40
2018-04-11T10:22:13.429Z,30.93
2018-04-11T10:24:41.772Z,36.20
2018-04-11T10:27:10.086Z,27.40
2018-04-11T10:29:38.390Z,43.27
2018-04-11T10:32:06.701Z,36.67
2018-04-11T10:34:35.030Z,36.57
2018-04-11T10:37:04.931Z,34.93
2018-04-11T10:39:33.240Z,34.63
2018-04-11T10:42:02.303Z,30.23
2018-04-11T10:44:30.602Z,31.10
2018-04-11T10:46:59.658Z,32.77
2018-04-11T10:49:29.165Z,41.40
2018-04-11T10:51:57.474Z,30.07
2018-04-11T10:54:25.751Z,33.90
2018-04-11T10:56:54.047Z,37.83
2018-04-11T10:59:23.104Z,30.83
2018-04-11T11:01:51.444Z,28.17
2018-04-11T11:04:20.016Z,26.50
2018-04-11T11:06:49.084Z,26.43
2018-04-11T11:09:17.439Z,31.63
2018-04-11T11:11:46.401Z,29.50
2018-04-11T11:14:14.740Z,24.10
2018-04-11T11:16:43.136Z,22.23
2018-04-11T11:19:12.282Z,22.07
2018-04-11T11:21:40.557Z,17.00
2018-04-11T11:24:08.920Z,19.77
2018-04-11T11:26:37.222Z,22.30
2018-04-11T11:29:05.591Z,23.33
2018-04-11T11:31:33.973Z,24.60
2018-04-11T11:34:02.325Z,30.03
2018-04-11T11:36:30.881Z,27.13
2018-04-11T11:38:59.949Z,20.77
2018-04-11T11:41:28.241Z,25.10
2018-04-11T11:43:57.829Z,23.20
2018-04-11T11:46:26.186Z,25.30
2018-04-11T11:48:54.565Z,17.70
2018-04-11T11:51:22.886Z,17.73
2018-04-11T11:53:51.356Z,20.07
2018-04-11T11:56:19.750Z,20.97
2018-04-11T11:58:48.042Z,14.10
2018-04-11T12:01:17.598Z,20.97
2018-04-11T12:03:45.912Z,14.90
2018-04-11T12:06:15.215Z,19.37
2018-04-11T12:08:44.283Z,15.00
2018-04-11T12:11:13.344Z,12.00
2018-04-11T12:13:42.105Z,12.63
2018-04-11T12:16:10.439Z,12.10
2018-04-11T12:18:38.712Z,9.60
2018-04-11T12:21:06.997Z,11.63
2018-04-11T12:23:36.025Z,13.43
2018-04-11T12:26:04.304Z,18.50
2018-04-11T12:28:32.638Z,15.83
2018-04-11T12:31:01.727Z,14.63
2018-04-11T12:33:30.096Z,16.10
2018-04-11T12:35:58.405Z,13.13
2018-04-11T12:38:26.703Z,19.43
2018-04-11T12:40:55.777Z,11.73
2018-04-11T12:43:24.135Z,13.23
2018-04-11T12:45:52.451Z,12.40
2018-04-11T12:48:20.831Z,11.23
2018-04-11T12:50:49.236Z,9.53
2018-04-11T12:53:17.577Z,12.50
2018-04-11T12:55:45.882Z,8.40
2018-04-11T12:58:14.284Z,9.33
2018-04-11T13:00:42.667Z,11.47
2018-04-11T13:03:10.955Z,15.87
2018-04-11T13:05:39.240Z,18.30
2018-04-11T13:08:07.590Z,7.67
2018-04-11T13:10:35.870Z,8.37
2018-04-11T13:13:04.197Z,9.47
2018-04-11T13:15:33.343Z,9.40
2018-04-11T13:18:01.612Z,9.00
2018-04-11T13:20:29.932Z,8.80
2018-04-11T13:22:58.274Z,7.70
2018-04-11T13:25:28.212Z,6.67
2018-04-11T13:27:57.388Z,6.37
2018-04-11T13:30:25.662Z,9.60
2018-04-11T13:32:54.119Z,8.43
2018-04-11T13:35:22.499Z,6.93
2018-04-11T13:37:50.859Z,5.67
2018-04-11T13:40:20.053Z,7.77
2018-04-11T13:42:48.470Z,7.37
2018-04-11T13:45:16.752Z,4.40
2018-04-11T13:47:45.026Z,5.37
2018-04-11T13:50:13.309Z,4.23
2018-04-11T13:52:42.367Z,3.63
2018-04-11T13:55:10.674Z,5.67
2018-04-11T13:57:38.950Z,3.13
2018-04-11T14:00:07.694Z,3.90
2018-04-11T14:02:36.741Z,4.00
2018-04-11T14:05:05.002Z,4.50
2018-04-11T14:07:33.296Z,5.00
2018-04-11T14:10:01.558Z,5.47
2018-04-11T14:12:29.807Z,2.70
2018-04-11T14:14:58.214Z,4.60
2018-04-11T14:17:26.482Z,3.17
2018-04-11T14:19:54.805Z,3.90
2018-04-11T14:22:23.682Z,4.63
2018-04-11T14:24:51.979Z,5.40
2018-04-11T14:27:20.270Z,3.00
2018-04-11T14:29:49.318Z,4.37
2018-04-11T14:32:17.599Z,3.30
2018-04-11T14:34:45.979Z,3.50
2018-04-11T14:37:14.909Z,4.53
2018-04-11T14:39:43.941Z,5.30
2018-04-11T14:42:12.261Z,2.90
2018-04-11T14:44:40.529Z,7.17
2018-04-11T14:47:08.835Z,4.00
2018-04-11T14:49:37.859Z,2.20
2018-04-11T14:52:06.968Z,2.53
2018-04-11T14:54:35.345Z,2.93
2018-04-11T14:57:03.618Z,8.67
2018-04-11T14:59:31.879Z,3.30
2018-04-11T15:02:00.920Z,2.63
2018-04-11T15:04:29.246Z,2.10
2018-04-11T15:06:57.514Z,2.17
2018-04-11T15:09:25.837Z,3.03
2018-04-11T15:11:54.117Z,4.40
2018-04-11T15:14:22.387Z,1.80
2018-04-11T15:16:50.664Z,3.00
2018-04-11T15:19:18.937Z,3.93
2018-04-11T15:21:47.224Z,2.73
2018-04-11T15:24:15.501Z,3.50
2018-04-11T15:26:44.351Z,1.80
2018-04-11T15:29:12.681Z,2.83
2018-04-11T15:31:42.473Z,3.03
2018-04-11T15:34:10.852Z,3.63
2018-04-11T15:36:39.122Z,3.57
2018-04-11T15:39:07.420Z,5.00
2018-04-11T15:41:35.692Z,3.77
2018-04-11T15:44:03.977Z,5.80
2018-04-11T15:46:37.443Z,3.67
2018-04-11T15:49:05.717Z,3.67
2018-04-11T15:51:34.022Z,3.33
2018-04-11T15:54:03.069Z,3.73
2018-04-11T15:56:32.291Z,4.40
2018-04-11T15:59:00.548Z,4.23
2018-04-11T16:01:28.807Z,5.07
2018-04-11T16:03:57.228Z,3.50
2018-04-11T16:06:25.576Z,3.90
2018-04-11T16:08:53.881Z,2.97
2018-04-11T16:11:22.151Z,3.17
2018-04-11T16:13:50.432Z,2.47
2018-04-11T16:16:18.891Z,5.47
2018-04-11T16:18:47.243Z,5.67
2018-04-11T16:21:15.606Z,3.53
2018-04-11T16:23:43.868Z,2.57
2018-04-11T16:26:12.208Z,3.50
2018-04-11T16:28:40.534Z,3.00
2018-04-11T16:31:09.577Z,3.10
2018-04-11T16:33:37.903Z,2.10
2018-04-11T16:36:06.971Z,3.07
2018-04-11T16:38:35.281Z,4.47
2018-04-11T16:41:03.560Z,5.67
2018-04-11T16:43:32.662Z,7.50
2018-04-11T16:46:01.700Z,4.77
2018-04-11T16:48:29.977Z,4.13
2018-04-11T16:50:58.258Z,4.17
2018-04-11T16:53:26.528Z,2.43
2018-04-11T16:55:54.812Z,3.40
2018-04-11T16:58:23.128Z,4.33
2018-04-11T17:00:52.180Z,4.57
2018-04-11T17:03:20.599Z,2.90
2018-04-11T17:05:49.838Z,5.93
2018-04-11T17:08:18.126Z,6.17
2018-04-11T17:10:46.430Z,5.30
2018-04-11T17:13:15.476Z,2.60
2018-04-11T17:15:43.728Z,3.70
2018-04-11T17:18:12.039Z,2.33
2018-04-11T17:20:52.544Z,2.90
2018-04-11T17:23:32.883Z,2.70
2018-04-11T17:26:13.760Z,10.23
2018-04-11T17:28:53.896Z,6.00
2018-04-11T17:31:25.427Z,2.80
2018-04-11T17:33:53.733Z,4.17
2018-04-11T17:36:22.027Z,2.40
2018-04-11T17:38:50.398Z,4.07
2018-04-11T17:41:18.685Z,4.33
2018-04-11T17:43:46.957Z,5.03
2018-04-11T17:46:15.315Z,2.17
2018-04-11T17:48:43.572Z,3.10
2018-04-11T17:51:11.948Z,2.30
2018-04-11T17:53:40.227Z,2.70
2018-04-11T17:56:08.494Z,2.83
2018-04-11T17:58:36.782Z,3.90
2018-04-11T18:01:05.898Z,4.20
2018-04-11T18:03:34.164Z,3.40
2018-04-11T18:06:02.476Z,4.10
2018-04-11T18:08:30.794Z,3.63
2018-04-11T18:10:59.185Z,5.63
2018-04-11T18:13:27.473Z,3.70
2018-04-11T18:15:55.755Z,4.00
2018-04-11T18:18:24.958Z,3.63
2018-04-11T18:20:53.247Z,2.50
2018-04-11T18:23:21.528Z,3.67
2018-04-11T18:25:50.601Z,3.40
2018-04-11T18:28:18.952Z,3.77
2018-04-11T18:30:47.235Z,2.97
2018-04-11T18:33:15.510Z,2.40
2018-04-11T18:35:43.792Z,2.53
2018-04-11T18:38:12.094Z,3.80
2018-04-11T18:40:40.408Z,7.57
2018-04-11T18:43:09.453Z,8.30
2018-04-11T18:45:37.712Z,5.63
2018-04-11T18:48:06.014Z,8.97
2018-04-11T18:50:34.387Z,7.10
2018-04-11T18:53:02.646Z,5.23
2018-04-11T18:55:30.934Z,3.17
2018-04-11T18:57:59.203Z,7.03
2018-04-11T19:00:27.480Z,5.60
2018-04-11T19:02:55.760Z,4.17
2018-04-11T19:05:24.156Z,3.73
2018-04-11T19:07:52.529Z,3.80
2018-04-11T19:10:20.806Z,3.80
2018-04-11T19:12:49.080Z,5.63
2018-04-11T19:15:17.371Z,3.03
2018-04-11T19:17:45.624Z,5.90
2018-04-11T19:20:13.896Z,6.03
2018-04-11T19:22:42.150Z,7.50
2018-04-11T19:25:10.482Z,9.20
2018-04-11T19:27:39.543Z,5.43
2018-04-11T19:30:07.824Z,6.03
2018-04-11T19:32:36.135Z,4.00
2018-04-11T19:35:04.376Z,6.27
2018-04-11T19:37:32.746Z,5.13
2018-04-11T19:40:01.063Z,5.13
2018-04-11T19:42:29.340Z,7.10
2018-04-11T19:44:57.613Z,7.17
2018-04-11T19:47:25.970Z,9.57
2018-04-11T19:49:54.263Z,6.73
2018-04-11T19:52:22.606Z,8.43
2018-04-11T19:54:50.872Z,5.47
2018-04-11T19:57:19.140Z,6.07
2018-04-11T19:59:47.411Z,8.73
2018-04-11T20:02:15.951Z,7.20
2018-04-11T20:04:44.210Z,5.00
2018-04-11T20:07:12.482Z,6.37
2018-04-11T20:09:40.661Z,5.23
2018-04-11T20:12:08.855Z,5.37
2018-04-11T20:14:37.066Z,7.90
2018-04-11T20:17:05.268Z,6.03
2018-04-11T20:19:33.592Z,8.70
2018-04-11T20:22:01.855Z,9.93
2018-04-11T20:24:30.114Z,7.20
2018-04-11T20:26:58.457Z,9.23
2018-04-11T20:29:26.711Z,9.03
2018-04-11T20:31:55.742Z,9.63
2018-04-11T20:34:23.997Z,4.80
2018-04-11T20:36:52.323Z,11.43
2018-04-11T20:39:20.650Z,8.53
2018-04-11T20:41:48.946Z,11.53
2018-04-11T20:44:17.287Z,11.57
2018-04-11T20:46:46.348Z,7.73
2018-04-11T20:49:14.609Z,8.13
2018-04-11T20:51:42.882Z,10.23
2018-04-11T20:54:11.313Z,9.97
2018-04-11T20:56:40.347Z,12.37
2018-04-11T20:59:08.868Z,11.23
2018-04-11T21:01:37.144Z,10.50
2018-04-11T21:04:05.427Z,12.70
2018-04-11T21:06:33.685Z,11.30
2018-04-11T21:09:01.996Z,15.13
2018-04-11T21:11:30.288Z,11.93
2018-04-11T21:13:58.558Z,12.20
2018-04-11T21:16:26.828Z,10.40
2018-04-11T21:18:55.862Z,12.80
2018-04-11T21:21:24.173Z,11.33
2018-04-11T21:23:52.475Z,18.87
2018-04-11T21:26:21.515Z,13.30
2018-04-11T21:28:49.787Z,19.50
2018-04-11T21:31:18.056Z,13.03
2018-04-11T21:33:46.317Z,15.77
2018-04-11T21:36:14.588Z,14.63
2018-04-11T21:38:42.874Z,14.60
2018-04-11T21:41:11.154Z,14.23
2018-04-11T21:43:39.410Z,15.83
2018-04-11T21:46:07.675Z,14.83
2018-04-11T21:48:36.704Z,14.33
2018-04-11T21:51:05.004Z,15.03
2018-04-11T21:53:33.262Z,15.07
2018-04-11T21:56:01.536Z,13.83
2018-04-11T21:58:29.796Z,11.90
2018-04-11T22:00:58.068Z,17.13
2018-04-11T22:03:26.336Z,18.03
2018-04-11T22:05:55.366Z,20.00
2018-04-11T22:08:23.661Z,17.87
2018-04-11T22:10:51.954Z,19.93
2018-04-11T22:13:20.226Z,19.03
2018-04-11T22:15:49.261Z,18.43
2018-04-11T22:18:17.589Z,22.27
2018-04-11T22:20:45.914Z,18.90
2018-04-11T22:23:14.195Z,18.57
2018-04-11T22:25:42.486Z,15.33
2018-04-11T22:28:10.762Z,17.17
2018-04-11T22:30:39.039Z,14.33
2018-04-11T22:33:07.310Z,19.23
2018-04-11T22:35:35.592Z,15.30
2018-04-11T22:38:03.863Z,17.90
2018-04-11T22:40:32.160Z,17.43
2018-04-11T22:43:00.451Z,16.93
2018-04-11T22:45:28.732Z,17.50
2018-04-11T22:47:58.504Z,18.20
2018-04-11T22:50:26.787Z,19.50
2018-04-11T22:52:55.060Z,17.47
2018-04-11T22:55:23.342Z,16.70
2018-04-11T22:57:51.628Z,20.03
2018-04-11T23:00:19.917Z,19.60
2018-04-11T23:02:48.180Z,16.97
2018-04-11T23:05:16.444Z,25.33
2018-04-11T23:07:44.715Z,16.13
2018-04-11T23:10:12.994Z,19.87
2018-04-11T23:12:41.280Z,18.80
2018-04-11T23:15:09.559Z,24.70
2018-04-11T23:17:37.839Z,26.57
2018-04-11T23:20:06.107Z,25.23
2018-04-11T23:22:34.376Z,21.53
2018-04-11T23:25:02.657Z,21.37
2018-04-11T23:27:30.936Z,17.80
2018-04-11T23:29:59.222Z,18.70
2018-04-11T23:32:27.486Z,21.27
2018-04-11T23:34:55.808Z,28.23
2018-04-11T23:37:24.854Z,23.63
2018-04-11T23:39:53.158Z,23.00
2018-04-11T23:42:21.471Z,22.27
2018-04-11T23:44:49.905Z,26.03
2018-04-11T23:47:18.160Z,25.50
2018-04-11T23:49:46.436Z,27.40
2018-04-11T23:52:14.745Z,27.03
2018-04-11T23:54:43.021Z,32.80
2018-04-11T23:57:11.300Z,28.40
2018-04-11T23:59:39.568Z,27.33
